FKKN

Details ICAO FKKN (NGE)
Name NGAOUNDERE
Region Cameroon
Timezone Africa/Douala (UTC+1.0)
Plans Departing 0
Arriving 4
Stats Elevation 3,655 ft / 1,114 m (AMSL)
Location 7.357012° 13.559240°
Runways 1
Magnetic Variation 0.382° E
Sunrise 2018-05-27 04:49:13 UTC / 2018-05-27 05:49:13 Local
Sunset 2018-05-27 17:19:30 UTC / 2018-05-27 18:19:30 Local
Advertisement - Login to hide

Runways

ID Width Length Bearing (true) Bearing (mag) Surface Threshold Offset Overrun Length
02 148 ft / 45 m 8,677 ft / 2,645 m 22.07° 21.69° Asphalt 492 ft / 150 m 100 ft / 30 m
20 148 ft / 45 m 8,677 ft / 2,645 m 202.07° 201.69° Asphalt 131 ft / 40 m 110 ft / 34 m

Map

Weather


0- 5 10 15 20 25 30 35+ Temperature / ° C

Clouds and Precipitation
Forecast for 2018-05-27 12:00 UTC. Updated 38 minutes ago

Ground ~20,000 ft ~40,000 ft Winds

METAR

FKKN 270900Z 22006KT 9999 SCT020 26/22 Q1020

TAF

Not found

Frequencies

Tower 118.10 MHz TWR
Warning: Do not use this data for real-world aviation or navigation. No guarantee of current accuracy is given.